sensor_id;sensor_type;location;lat;lon;timestamp;pressure;altitude;pressure_sealevel;temperature;humidity
71559;BME280;59382;43.852;25.952;2023-04-03T00:03:59;100542.91;;;13.37;54.86
71559;BME280;59382;43.852;25.952;2023-04-03T00:06:25;100533.56;;;13.33;54.82
71559;BME280;59382;43.852;25.952;2023-04-03T00:08:51;100541.84;;;13.38;54.46
71559;BME280;59382;43.852;25.952;2023-04-03T00:11:17;100537.13;;;13.34;54.80
71559;BME280;59382;43.852;25.952;2023-04-03T00:13:43;100543.84;;;13.31;55.10
71559;BME280;59382;43.852;25.952;2023-04-03T00:16:10;100553.75;;;13.37;54.92
71559;BME280;59382;43.852;25.952;2023-04-03T00:18:37;100558.09;;;13.38;55.20
71559;BME280;59382;43.852;25.952;2023-04-03T00:21:03;100554.56;;;13.38;55.27
71559;BME280;59382;43.852;25.952;2023-04-03T00:23:29;100558.72;;;13.40;55.17
71559;BME280;59382;43.852;25.952;2023-04-03T00:25:54;100559.63;;;13.34;55.49
71559;BME280;59382;43.852;25.952;2023-04-03T00:28:20;100561.28;;;13.35;55.09
71559;BME280;59382;43.852;25.952;2023-04-03T00:30:46;100564.59;;;13.37;55.24
71559;BME280;59382;43.852;25.952;2023-04-03T00:33:13;100563.66;;;13.43;54.96
71559;BME280;59382;43.852;25.952;2023-04-03T00:35:39;100555.31;;;13.45;54.91
71559;BME280;59382;43.852;25.952;2023-04-03T00:38:05;100559.56;;;13.52;55.16
71559;BME280;59382;43.852;25.952;2023-04-03T00:40:37;100552.59;;;13.56;54.95
71559;BME280;59382;43.852;25.952;2023-04-03T00:43:11;100559.19;;;13.60;54.90
71559;BME280;59382;43.852;25.952;2023-04-03T00:45:41;100548.81;;;13.57;55.00
71559;BME280;59382;43.852;25.952;2023-04-03T00:48:11;100560.72;;;13.68;55.01
71559;BME280;59382;43.852;25.952;2023-04-03T00:50:40;100551.88;;;13.72;54.79
71559;BME280;59382;43.852;25.952;2023-04-03T00:53:09;100544.47;;;13.68;54.98
71559;BME280;59382;43.852;25.952;2023-04-03T00:55:38;100554.72;;;13.77;54.79
71559;BME280;59382;43.852;25.952;2023-04-03T00:58:05;100555.19;;;13.74;54.73
71559;BME280;59382;43.852;25.952;2023-04-03T01:00:33;100555.78;;;13.65;54.74
71559;BME280;59382;43.852;25.952;2023-04-03T01:02:59;100560.84;;;13.61;54.94
71559;BME280;59382;43.852;25.952;2023-04-03T01:05:25;100554.94;;;13.53;55.05
71559;BME280;59382;43.852;25.952;2023-04-03T01:07:51;100560.22;;;13.36;55.61
71559;BME280;59382;43.852;25.952;2023-04-03T01:10:18;100571.97;;;13.30;55.35
71559;BME280;59382;43.852;25.952;2023-04-03T01:12:47;100561.84;;;13.26;55.54
71559;BME280;59382;43.852;25.952;2023-04-03T01:15:18;100572.69;;;13.26;55.67
71559;BME280;59382;43.852;25.952;2023-04-03T01:17:53;100543.31;;;13.11;55.42
71559;BME280;59382;43.852;25.952;2023-04-03T01:28:07;100549.44;;;13.07;55.45
71559;BME280;59382;43.852;25.952;2023-04-03T01:30:43;100571.28;;;13.23;55.75
71559;BME280;59382;43.852;25.952;2023-04-03T01:33:09;100575.53;;;13.31;55.41
71559;BME280;59382;43.852;25.952;2023-04-03T01:35:35;100573.88;;;13.30;55.03
71559;BME280;59382;43.852;25.952;2023-04-03T01:38:00;100548.28;;;13.14;55.33
71559;BME280;59382;43.852;25.952;2023-04-03T01:40:26;100567.38;;;13.19;55.21
71559;BME280;59382;43.852;25.952;2023-04-03T01:42:51;100572.19;;;13.17;55.15
71559;BME280;59382;43.852;25.952;2023-04-03T01:45:17;100568.56;;;13.23;55.20
71559;BME280;59382;43.852;25.952;2023-04-03T01:47:42;100551.22;;;13.24;54.79
71559;BME280;59382;43.852;25.952;2023-04-03T01:50:08;100569.78;;;13.39;54.89
71559;BME280;59382;43.852;25.952;2023-04-03T01:52:34;100569.56;;;13.40;54.64
71559;BME280;59382;43.852;25.952;2023-04-03T01:54:59;100558.34;;;13.37;54.51
71559;BME280;59382;43.852;25.952;2023-04-03T01:57:25;100553.28;;;13.40;54.55
71559;BME280;59382;43.852;25.952;2023-04-03T01:59:50;100542.91;;;13.37;54.23
71559;BME280;59382;43.852;25.952;2023-04-03T02:02:17;100555.16;;;13.51;54.18
71559;BME280;59382;43.852;25.952;2023-04-03T02:04:45;100539.97;;;13.50;54.42
71559;BME280;59382;43.852;25.952;2023-04-03T02:07:11;100557.41;;;13.66;54.01
71559;BME280;59382;43.852;25.952;2023-04-03T02:09:37;100560.34;;;13.64;53.91
71559;BME280;59382;43.852;25.952;2023-04-03T02:12:02;100565.69;;;13.71;53.67
71559;BME280;59382;43.852;25.952;2023-04-03T02:14:28;100523.56;;;13.45;53.92
71559;BME280;59382;43.852;25.952;2023-04-03T02:16:54;100575.81;;;13.75;53.60
71559;BME280;59382;43.852;25.952;2023-04-03T02:19:19;100575.81;;;13.75;53.57
71559;BME280;59382;43.852;25.952;2023-04-03T02:21:45;100576.16;;;13.67;53.59
71559;BME280;59382;43.852;25.952;2023-04-03T02:24:10;100576.88;;;13.63;54.17
71559;BME280;59382;43.852;25.952;2023-04-03T02:26:36;100572.28;;;13.52;54.02
71559;BME280;59382;43.852;25.952;2023-04-03T02:29:02;100563.53;;;13.50;53.84
71559;BME280;59382;43.852;25.952;2023-04-03T02:31:27;100581.81;;;13.54;54.22
71559;BME280;59382;43.852;25.952;2023-04-03T02:33:53;100578.75;;;13.51;54.47
71559;BME280;59382;43.852;25.952;2023-04-03T02:36:19;100583.44;;;13.55;54.40
71559;BME280;59382;43.852;25.952;2023-04-03T02:38:44;100575.22;;;13.50;54.31
71559;BME280;59382;43.852;25.952;2023-04-03T02:41:12;100597.16;;;13.60;54.38
71559;BME280;59382;43.852;25.952;2023-04-03T02:43:38;100593.84;;;13.58;54.47
71559;BME280;59382;43.852;25.952;2023-04-03T02:46:05;100595.59;;;13.53;54.70
71559;BME280;59382;43.852;25.952;2023-04-03T02:48:30;100581.19;;;13.41;54.37
71559;BME280;59382;43.852;25.952;2023-04-03T02:50:56;100575.91;;;13.34;54.45
71559;BME280;59382;43.852;25.952;2023-04-03T02:53:21;100596.19;;;13.43;55.03
71559;BME280;59382;43.852;25.952;2023-04-03T02:55:48;100592.03;;;13.41;54.56
71559;BME280;59382;43.852;25.952;2023-04-03T02:58:14;100603.84;;;13.46;54.80
71559;BME280;59382;43.852;25.952;2023-04-03T03:00:39;100603.25;;;13.44;54.98
71559;BME280;59382;43.852;25.952;2023-04-03T03:03:05;100592.63;;;13.31;54.73
71559;BME280;59382;43.852;25.952;2023-04-03T03:05:32;100593.19;;;13.33;54.99
71559;BME280;59382;43.852;25.952;2023-04-03T03:07:57;100601.94;;;13.35;54.85
71559;BME280;59382;43.852;25.952;2023-04-03T03:10:23;100584.25;;;13.33;54.79
71559;BME280;59382;43.852;25.952;2023-04-03T03:12:49;100603.72;;;13.41;54.45
71559;BME280;59382;43.852;25.952;2023-04-03T03:15:15;100603.81;;;13.35;54.39
71559;BME280;59382;43.852;25.952;2023-04-03T03:17:41;100606.41;;;13.30;54.48
71559;BME280;59382;43.852;25.952;2023-04-03T03:20:07;100608.75;;;13.26;54.63
71559;BME280;59382;43.852;25.952;2023-04-03T03:22:33;100607.69;;;13.27;54.80
71559;BME280;59382;43.852;25.952;2023-04-03T03:24:59;100612.63;;;13.30;54.41
71559;BME280;59382;43.852;25.952;2023-04-03T03:27:26;100608.88;;;13.31;54.71
71559;BME280;59382;43.852;25.952;2023-04-03T03:29:51;100619.84;;;13.36;54.33
71559;BME280;59382;43.852;25.952;2023-04-03T03:32:18;100615.50;;;13.35;55.02
71559;BME280;59382;43.852;25.952;2023-04-03T03:34:43;100623.75;;;13.40;54.23
71559;BME280;59382;43.852;25.952;2023-04-03T03:37:09;100618.81;;;13.37;54.46
71559;BME280;59382;43.852;25.952;2023-04-03T03:39:34;100599.44;;;13.22;55.06
71559;BME280;59382;43.852;25.952;2023-04-03T03:42:00;100626.31;;;13.35;54.83
71559;BME280;59382;43.852;25.952;2023-04-03T03:44:26;100626.06;;;13.25;54.77
71559;BME280;59382;43.852;25.952;2023-04-03T03:46:51;100618.25;;;13.17;54.69
71559;BME280;59382;43.852;25.952;2023-04-03T03:49:16;100624.59;;;13.11;54.39
71559;BME280;59382;43.852;25.952;2023-04-03T03:51:42;100630.34;;;13.03;54.68
71559;BME280;59382;43.852;25.952;2023-04-03T03:54:07;100642.44;;;13.01;55.16
71559;BME280;59382;43.852;25.952;2023-04-03T03:56:33;100642.75;;;12.93;55.36
71559;BME280;59382;43.852;25.952;2023-04-03T03:58:59;100634.69;;;12.86;55.58
71559;BME280;59382;43.852;25.952;2023-04-03T04:01:24;100633.63;;;12.87;55.19
71559;BME280;59382;43.852;25.952;2023-04-03T04:03:50;100615.28;;;12.89;55.03
71559;BME280;59382;43.852;25.952;2023-04-03T04:06:16;100608.69;;;12.85;55.20
71559;BME280;59382;43.852;25.952;2023-04-03T04:08:42;100613.63;;;12.88;55.37
71559;BME280;59382;43.852;25.952;2023-04-03T04:11:08;100625.88;;;12.91;55.02
71559;BME280;59382;43.852;25.952;2023-04-03T04:13:34;100613.72;;;12.82;54.95
71559;BME280;59382;43.852;25.952;2023-04-03T04:16:00;100592.59;;;12.72;55.10
71559;BME280;59382;43.852;25.952;2023-04-03T04:18:26;100618.63;;;12.73;54.71
71559;BME280;59382;43.852;25.952;2023-04-03T04:20:51;100616.78;;;12.56;54.27
71559;BME280;59382;43.852;25.952;2023-04-03T04:23:18;100598.13;;;12.30;54.53
71559;BME280;59382;43.852;25.952;2023-04-03T04:25:47;100602.09;;;12.09;54.70
71559;BME280;59382;43.852;25.952;2023-04-03T04:28:14;100603.03;;;11.97;54.70
71559;BME280;59382;43.852;25.952;2023-04-03T04:30:40;100604.00;;;11.84;55.35
71559;BME280;59382;43.852;25.952;2023-04-03T04:33:06;100628.03;;;11.92;55.29
71559;BME280;59382;43.852;25.952;2023-04-03T04:35:32;100632.84;;;11.90;55.59
71559;BME280;59382;43.852;25.952;2023-04-03T04:37:58;100633.44;;;11.92;55.50
71559;BME280;59382;43.852;25.952;2023-04-03T04:40:25;100637.66;;;11.88;55.61
71559;BME280;59382;43.852;25.952;2023-04-03T04:42:52;100646.25;;;12.03;55.93
71559;BME280;59382;43.852;25.952;2023-04-03T04:45:18;100634.75;;;12.08;55.66
71559;BME280;59382;43.852;25.952;2023-04-03T04:47:43;100646.28;;;12.21;55.80
71559;BME280;59382;43.852;25.952;2023-04-03T04:50:09;100632.53;;;12.23;55.30
71559;BME280;59382;43.852;25.952;2023-04-03T04:52:35;100650.03;;;12.38;55.35
71559;BME280;59382;43.852;25.952;2023-04-03T04:55:03;100642.09;;;12.43;55.30
71559;BME280;59382;43.852;25.952;2023-04-03T04:57:30;100648.19;;;12.57;55.51
71559;BME280;59382;43.852;25.952;2023-04-03T04:59:56;100641.47;;;12.59;55.39
71559;BME280;59382;43.852;25.952;2023-04-03T05:02:22;100637.97;;;12.59;55.22
71559;BME280;59382;43.852;25.952;2023-04-03T05:04:47;100626.59;;;12.50;55.25
71559;BME280;59382;43.852;25.952;2023-04-03T05:07:15;100644.06;;;12.54;55.40
71559;BME280;59382;43.852;25.952;2023-04-03T05:09:41;100644.66;;;12.56;55.27
71559;BME280;59382;43.852;25.952;2023-04-03T05:12:07;100644.81;;;12.61;55.85
71559;BME280;59382;43.852;25.952;2023-04-03T05:14:33;100628.81;;;12.89;55.55
71559;BME280;59382;43.852;25.952;2023-04-03T05:16:58;100640.28;;;13.50;54.87
71559;BME280;59382;43.852;25.952;2023-04-03T05:19:24;100640.56;;;14.07;54.17
71559;BME280;59382;43.852;25.952;2023-04-03T05:21:49;100651.28;;;14.71;53.46
71559;BME280;59382;43.852;25.952;2023-04-03T05:24:15;100640.88;;;15.19;52.57
71559;BME280;59382;43.852;25.952;2023-04-03T05:26:42;100663.41;;;15.76;51.90
71559;BME280;59382;43.852;25.952;2023-04-03T05:29:08;100659.59;;;16.26;51.09
71559;BME280;59382;43.852;25.952;2023-04-03T05:31:34;100661.44;;;16.75;50.56
71559;BME280;59382;43.852;25.952;2023-04-03T05:34:00;100653.78;;;17.20;49.83
71559;BME280;59382;43.852;25.952;2023-04-03T05:36:26;100646.03;;;17.60;48.94
71559;BME280;59382;43.852;25.952;2023-04-03T05:38:52;100638.91;;;17.86;48.14
71559;BME280;59382;43.852;25.952;2023-04-03T05:41:18;100670.41;;;18.35;47.49
71559;BME280;59382;43.852;25.952;2023-04-03T05:43:46;100661.06;;;18.63;47.33
71559;BME280;59382;43.852;25.952;2023-04-03T05:46:13;100674.09;;;19.07;46.84
71559;BME280;59382;43.852;25.952;2023-04-03T05:48:39;100675.59;;;19.35;45.92
71559;BME280;59382;43.852;25.952;2023-04-03T05:51:06;100670.34;;;19.28;45.98
71559;BME280;59382;43.852;25.952;2023-04-03T05:53:35;100682.19;;;19.49;45.60
71559;BME280;59382;43.852;25.952;2023-04-03T05:56:03;100693.69;;;19.61;45.41
71559;BME280;59382;43.852;25.952;2023-04-03T05:58:28;100687.16;;;19.72;45.19
71559;BME280;59382;43.852;25.952;2023-04-03T06:00:54;100684.97;;;19.79;44.93
71559;BME280;59382;43.852;25.952;2023-04-03T06:03:20;100691.53;;;19.88;44.73
71559;BME280;59382;43.852;25.952;2023-04-03T06:05:45;100691.00;;;19.71;44.50
71559;BME280;59382;43.852;25.952;2023-04-03T06:08:11;100700.25;;;19.60;44.49
71559;BME280;59382;43.852;25.952;2023-04-03T06:10:38;100704.06;;;19.44;44.32
71559;BME280;59382;43.852;25.952;2023-04-03T06:13:03;100712.97;;;19.14;44.63
71559;BME280;59382;43.852;25.952;2023-04-03T06:15:29;100708.00;;;19.01;45.11
71559;BME280;59382;43.852;25.952;2023-04-03T06:17:54;100713.69;;;18.95;44.79
71559;BME280;59382;43.852;25.952;2023-04-03T06:20:20;100714.34;;;18.65;45.06
71559;BME280;59382;43.852;25.952;2023-04-03T06:22:46;100715.56;;;18.43;45.44
71559;BME280;59382;43.852;25.952;2023-04-03T06:25:11;100719.53;;;18.30;45.57
71559;BME280;59382;43.852;25.952;2023-04-03T06:27:38;100742.50;;;18.66;45.30
71559;BME280;59382;43.852;25.952;2023-04-03T06:30:05;100730.63;;;18.92;44.85
71559;BME280;59382;43.852;25.952;2023-04-03T06:32:34;100712.72;;;19.26;44.70
71559;BME280;59382;43.852;25.952;2023-04-03T06:35:01;100738.09;;;19.78;44.02
71559;BME280;59382;43.852;25.952;2023-04-03T06:37:26;100738.19;;;20.23;43.28
71559;BME280;59382;43.852;25.952;2023-04-03T06:39:54;100748.84;;;20.50;42.66
71559;BME280;59382;43.852;25.952;2023-04-03T06:42:22;100752.09;;;20.67;42.42
71559;BME280;59382;43.852;25.952;2023-04-03T06:44:49;100745.50;;;20.73;42.31
71559;BME280;59382;43.852;25.952;2023-04-03T06:47:16;100744.41;;;20.84;42.07
71559;BME280;59382;43.852;25.952;2023-04-03T06:49:42;100741.41;;;20.75;41.53
71559;BME280;59382;43.852;25.952;2023-04-03T06:52:09;100742.50;;;20.59;41.50
71559;BME280;59382;43.852;25.952;2023-04-03T06:54:35;100756.22;;;20.69;41.50
71559;BME280;59382;43.852;25.952;2023-04-03T06:57:01;100757.59;;;20.77;41.28
71559;BME280;59382;43.852;25.952;2023-04-03T06:59:27;100756.22;;;20.69;41.25
71559;BME280;59382;43.852;25.952;2023-04-03T07:01:53;100752.16;;;20.52;41.19
71559;BME280;59382;43.852;25.952;2023-04-03T07:04:19;100740.09;;;20.23;41.66
71559;BME280;59382;43.852;25.952;2023-04-03T07:06:47;100757.56;;;20.02;41.65
71559;BME280;59382;43.852;25.952;2023-04-03T07:09:19;100764.38;;;19.74;42.23
71559;BME280;59382;43.852;25.952;2023-04-03T07:11:46;100750.06;;;19.57;42.13
71559;BME280;59382;43.852;25.952;2023-04-03T07:14:12;100773.34;;;19.55;42.30
71559;BME280;59382;43.852;25.952;2023-04-03T07:16:37;100766.72;;;19.40;42.44
71559;BME280;59382;43.852;25.952;2023-04-03T07:19:20;100743.41;;;19.28;42.26
71559;BME280;59382;43.852;25.952;2023-04-03T07:21:55;100747.22;;;19.27;42.42
71559;BME280;59382;43.852;25.952;2023-04-03T07:24:21;100743.84;;;19.10;42.48
71559;BME280;59382;43.852;25.952;2023-04-03T07:26:51;100766.44;;;18.90;42.68
71559;BME280;59382;43.852;25.952;2023-04-03T07:29:17;100750.09;;;18.54;43.01
71559;BME280;59382;43.852;25.952;2023-04-03T07:31:47;100754.91;;;18.42;43.52
71559;BME280;59382;43.852;25.952;2023-04-03T07:34:15;100761.38;;;18.36;43.43
71559;BME280;59382;43.852;25.952;2023-04-03T07:36:42;100768.44;;;18.32;43.92
71559;BME280;59382;43.852;25.952;2023-04-03T07:39:09;100772.63;;;18.39;43.84
71559;BME280;59382;43.852;25.952;2023-04-03T07:41:34;100772.38;;;18.41;43.89
71559;BME280;59382;43.852;25.952;2023-04-03T07:44:00;100776.09;;;18.35;43.70
71559;BME280;59382;43.852;25.952;2023-04-03T07:46:27;100767.66;;;18.05;43.92
71559;BME280;59382;43.852;25.952;2023-04-03T07:48:54;100775.56;;;17.80;44.89
71559;BME280;59382;43.852;25.952;2023-04-03T07:51:20;100779.81;;;17.66;45.23
71559;BME280;59382;43.852;25.952;2023-04-03T07:53:46;100778.16;;;17.65;45.32
71559;BME280;59382;43.852;25.952;2023-04-03T07:56:11;100789.69;;;17.72;45.30
71559;BME280;59382;43.852;25.952;2023-04-03T07:58:37;100790.31;;;17.79;44.87
71559;BME280;59382;43.852;25.952;2023-04-03T08:01:03;100789.22;;;17.80;45.15
71559;BME280;59382;43.852;25.952;2023-04-03T08:03:29;100799.09;;;17.81;45.07
71559;BME280;59382;43.852;25.952;2023-04-03T08:06:02;100790.56;;;17.77;45.09
71559;BME280;59382;43.852;25.952;2023-04-03T08:08:28;100775.53;;;17.75;45.10
71559;BME280;59382;43.852;25.952;2023-04-03T08:10:57;100774.69;;;17.69;44.93
71559;BME280;59382;43.852;25.952;2023-04-03T08:13:23;100794.91;;;17.73;44.68
71559;BME280;59382;43.852;25.952;2023-04-03T08:15:49;100779.19;;;17.58;45.06
71559;BME280;59382;43.852;25.952;2023-04-03T08:18:16;100789.09;;;17.65;45.11
71559;BME280;59382;43.852;25.952;2023-04-03T08:20:44;100787.22;;;17.70;44.95
71559;BME280;59382;43.852;25.952;2023-04-03T08:23:10;100787.25;;;17.75;44.69
71559;BME280;59382;43.852;25.952;2023-04-03T08:25:40;100776.06;;;17.72;44.86
71559;BME280;59382;43.852;25.952;2023-04-03T08:28:08;100791.97;;;17.80;45.02
71559;BME280;59382;43.852;25.952;2023-04-03T08:30:34;100777.16;;;17.71;44.90
71559;BME280;59382;43.852;25.952;2023-04-03T08:33:03;100772.72;;;17.65;45.11
71559;BME280;59382;43.852;25.952;2023-04-03T08:35:29;100775.72;;;17.68;45.18
71559;BME280;59382;43.852;25.952;2023-04-03T08:37:55;100772.19;;;17.68;45.35
71559;BME280;59382;43.852;25.952;2023-04-03T08:40:22;100769.41;;;17.63;45.38
71559;BME280;59382;43.852;25.952;2023-04-03T08:45:25;100771.19;;;17.52;45.98
71559;BME280;59382;43.852;25.952;2023-04-03T08:47:57;100746.06;;;17.28;46.39
71559;BME280;59382;43.852;25.952;2023-04-03T08:50:47;100762.03;;;17.41;46.71
71559;BME280;59382;43.852;25.952;2023-04-03T08:53:35;100757.50;;;17.30;46.55
71559;BME280;59382;43.852;25.952;2023-04-03T08:56:05;100751.81;;;17.32;47.09
71559;BME280;59382;43.852;25.952;2023-04-03T08:58:42;100752.56;;;17.27;47.26
71559;BME280;59382;43.852;25.952;2023-04-03T09:01:38;100738.81;;;17.17;47.71
71559;BME280;59382;43.852;25.952;2023-04-03T09:04:11;100745.03;;;17.13;48.03
71559;BME280;59382;43.852;25.952;2023-04-03T09:06:41;100740.84;;;17.05;48.25
71559;BME280;59382;43.852;25.952;2023-04-03T09:12:17;100747.38;;;17.04;48.62
71559;BME280;59382;43.852;25.952;2023-04-03T09:15:21;100746.94;;;17.12;48.33
71559;BME280;59382;43.852;25.952;2023-04-03T09:18:00;100736.03;;;17.12;48.31
71559;BME280;59382;43.852;25.952;2023-04-03T09:25:49;100713.91;;;17.09;48.76
71559;BME280;59382;43.852;25.952;2023-04-03T09:28:16;100714.78;;;17.14;48.77
71559;BME280;59382;43.852;25.952;2023-04-03T09:30:41;100717.00;;;17.17;49.00
71559;BME280;59382;43.852;25.952;2023-04-03T09:33:08;100725.59;;;17.26;48.87
71559;BME280;59382;43.852;25.952;2023-04-03T09:35:37;100723.63;;;17.21;48.83
71559;BME280;59382;43.852;25.952;2023-04-03T09:40:40;100731.66;;;17.33;48.74
71559;BME280;59382;43.852;25.952;2023-04-03T09:43:24;100739.59;;;17.34;48.83
71559;BME280;59382;43.852;25.952;2023-04-03T09:45:51;100720.94;;;17.26;48.69
71559;BME280;59382;43.852;25.952;2023-04-03T09:48:19;100734.13;;;17.34;48.94
71559;BME280;59382;43.852;25.952;2023-04-03T09:55:58;100738.09;;;17.43;48.63
71559;BME280;59382;43.852;25.952;2023-04-03T09:58:36;100733.75;;;17.47;48.80
71559;BME280;59382;43.852;25.952;2023-04-03T10:01:03;100734.88;;;17.51;48.61
71559;BME280;59382;43.852;25.952;2023-04-03T10:03:36;100726.16;;;17.49;48.65
71559;BME280;59382;43.852;25.952;2023-04-03T10:06:03;100723.97;;;17.51;48.68
71559;BME280;59382;43.852;25.952;2023-04-03T10:08:33;100723.16;;;17.51;48.59
71559;BME280;59382;43.852;25.952;2023-04-03T10:11:16;100730.38;;;17.62;48.53
71559;BME280;59382;43.852;25.952;2023-04-03T10:13:57;100732.84;;;17.63;48.65
71559;BME280;59382;43.852;25.952;2023-04-03T10:16:39;100722.75;;;17.64;48.54
71559;BME280;59382;43.852;25.952;2023-04-03T10:21:59;100734.63;;;17.80;48.27
71559;BME280;59382;43.852;25.952;2023-04-03T10:27:09;100718.78;;;17.77;48.22
71559;BME280;59382;43.852;25.952;2023-04-03T10:40:42;100715.91;;;18.20;47.74
71559;BME280;59382;43.852;25.952;2023-04-03T10:46:09;100696.38;;;18.38;47.17
71559;BME280;59382;43.852;25.952;2023-04-03T10:54:09;100699.13;;;18.38;47.20
71559;BME280;59382;43.852;25.952;2023-04-03T10:59:23;100691.88;;;18.22;46.96
71559;BME280;59382;43.852;25.952;2023-04-03T11:01:55;100683.41;;;18.23;46.88
71559;BME280;59382;43.852;25.952;2023-04-03T11:04:23;100689.19;;;18.27;46.87
71559;BME280;59382;43.852;25.952;2023-04-03T11:07:00;100676.59;;;18.26;47.15
71559;BME280;59382;43.852;25.952;2023-04-03T11:09:35;100683.81;;;18.37;47.01
71559;BME280;59382;43.852;25.952;2023-04-03T11:12:24;100694.28;;;18.50;46.99
71559;BME280;59382;43.852;25.952;2023-04-03T11:14:52;100683.34;;;18.50;46.91
71559;BME280;59382;43.852;25.952;2023-04-03T11:22:33;100678.03;;;18.75;46.58
71559;BME280;59382;43.852;25.952;2023-04-03T11:27:42;100659.13;;;18.63;46.14
71559;BME280;59382;43.852;25.952;2023-04-03T11:30:22;100656.63;;;18.57;46.39
71559;BME280;59382;43.852;25.952;2023-04-03T11:33:05;100654.94;;;18.46;46.51
71559;BME280;59382;43.852;25.952;2023-04-03T11:35:36;100663.16;;;18.51;46.58
71559;BME280;59382;43.852;25.952;2023-04-03T11:38:04;100658.75;;;18.45;46.79
71559;BME280;59382;43.852;25.952;2023-04-03T11:40:35;100646.69;;;18.41;46.90
71559;BME280;59382;43.852;25.952;2023-04-03T11:43:03;100642.84;;;18.37;46.82
71559;BME280;59382;43.852;25.952;2023-04-03T11:50:47;100651.72;;;18.59;46.59
71559;BME280;59382;43.852;25.952;2023-04-03T11:55:53;100637.78;;;18.55;46.39
71559;BME280;59382;43.852;25.952;2023-04-03T11:58:21;100627.66;;;18.56;46.64
71559;BME280;59382;43.852;25.952;2023-04-03T12:16:20;100620.78;;;18.48;46.68
71559;BME280;59382;43.852;25.952;2023-04-03T12:21:17;100596.44;;;18.47;46.55
71559;BME280;59382;43.852;25.952;2023-04-03T12:26:41;100604.38;;;18.48;46.77
71559;BME280;59382;43.852;25.952;2023-04-03T12:31:55;100601.38;;;18.50;47.15
71559;BME280;59382;43.852;25.952;2023-04-03T12:45:20;100614.50;;;18.48;47.20
71559;BME280;59382;43.852;25.952;2023-04-03T12:47:49;100602.38;;;18.34;47.24
71559;BME280;59382;43.852;25.952;2023-04-03T12:50:23;100612.25;;;18.40;46.97
71559;BME280;59382;43.852;25.952;2023-04-03T12:52:54;100620.47;;;18.40;47.43
71559;BME280;59382;43.852;25.952;2023-04-03T12:55:21;100616.59;;;18.36;47.30
71559;BME280;59382;43.852;25.952;2023-04-03T12:57:47;100619.91;;;18.38;47.33
71559;BME280;59382;43.852;25.952;2023-04-03T13:02:45;100609.72;;;18.33;47.29
71559;BME280;59382;43.852;25.952;2023-04-03T13:05:17;100612.72;;;18.27;47.42
71559;BME280;59382;43.852;25.952;2023-04-03T13:07:44;100593.22;;;18.13;47.35
71559;BME280;59382;43.852;25.952;2023-04-03T13:10:16;100615.72;;;18.30;47.25
71559;BME280;59382;43.852;25.952;2023-04-03T13:15:19;100626.31;;;18.22;47.46
71559;BME280;59382;43.852;25.952;2023-04-03T13:17:45;100607.16;;;18.12;47.44
71559;BME280;59382;43.852;25.952;2023-04-03T13:20:19;100606.56;;;18.05;47.80
71559;BME280;59382;43.852;25.952;2023-04-03T13:23:10;100614.75;;;18.05;47.74
71559;BME280;59382;43.852;25.952;2023-04-03T13:25:43;100605.47;;;18.06;47.69
71559;BME280;59382;43.852;25.952;2023-04-03T13:28:14;100598.91;;;18.02;47.56
71559;BME280;59382;43.852;25.952;2023-04-03T13:30:55;100598.28;;;17.95;47.92
71559;BME280;59382;43.852;25.952;2023-04-03T13:33:25;100594.50;;;17.96;48.02
71559;BME280;59382;43.852;25.952;2023-04-03T13:36:19;100594.75;;;17.99;48.23
71559;BME280;59382;43.852;25.952;2023-04-03T13:38:45;100587.88;;;17.92;48.42
71559;BME280;59382;43.852;25.952;2023-04-03T13:41:32;100593.66;;;17.95;48.72
71559;BME280;59382;43.852;25.952;2023-04-03T13:44:35;100588.41;;;17.89;49.10
71559;BME280;59382;43.852;25.952;2023-04-03T13:47:37;100592.22;;;17.88;49.33
71559;BME280;59382;43.852;25.952;2023-04-03T13:52:47;100577.34;;;17.69;49.70
71559;BME280;59382;43.852;25.952;2023-04-03T13:55:26;100585.56;;;17.74;49.88
71559;BME280;59382;43.852;25.952;2023-04-03T14:00:46;100550.50;;;17.55;49.95
71559;BME280;59382;43.852;25.952;2023-04-03T14:05:54;100574.63;;;17.74;50.10
71559;BME280;59382;43.852;25.952;2023-04-03T14:08:21;100577.66;;;17.72;50.35
71559;BME280;59382;43.852;25.952;2023-04-03T14:10:47;100584.50;;;17.80;50.58
71559;BME280;59382;43.852;25.952;2023-04-03T14:13:18;100586.19;;;17.81;50.54
71559;BME280;59382;43.852;25.952;2023-04-03T14:15:44;100577.66;;;17.72;50.61
71559;BME280;59382;43.852;25.952;2023-04-03T14:18:13;100586.13;;;17.76;50.78
71559;BME280;59382;43.852;25.952;2023-04-03T14:20:40;100595.94;;;17.72;50.92
71559;BME280;59382;43.852;25.952;2023-04-03T14:23:05;100599.50;;;17.72;50.96
71559;BME280;59382;43.852;25.952;2023-04-03T14:25:31;100587.16;;;17.65;50.97
71559;BME280;59382;43.852;25.952;2023-04-03T14:27:58;100578.59;;;17.56;51.12
71559;BME280;59382;43.852;25.952;2023-04-03T14:30:28;100581.03;;;17.52;51.36
71559;BME280;59382;43.852;25.952;2023-04-03T14:32:55;100579.34;;;17.46;51.47
71559;BME280;59382;43.852;25.952;2023-04-03T14:35:21;100579.25;;;17.41;51.75
71559;BME280;59382;43.852;25.952;2023-04-03T14:37:48;100576.97;;;17.28;51.54
71559;BME280;59382;43.852;25.952;2023-04-03T14:40:20;100569.84;;;17.27;51.88
71559;BME280;59382;43.852;25.952;2023-04-03T14:42:47;100591.47;;;17.34;51.85
71559;BME280;59382;43.852;25.952;2023-04-03T14:45:17;100580.25;;;17.30;52.09
71559;BME280;59382;43.852;25.952;2023-04-03T14:47:46;100576.66;;;17.25;51.99